createdAt,value
2023-05-16T00:00:06.799Z,11.60
2023-05-16T00:02:09.708Z,11.50
2023-05-16T00:04:12.649Z,11.50
2023-05-16T00:06:15.698Z,11.50
2023-05-16T00:08:18.483Z,11.60
2023-05-16T00:10:21.483Z,11.50
2023-05-16T00:12:24.281Z,11.50
2023-05-16T00:14:28.444Z,11.50
2023-05-16T00:16:31.562Z,11.50
2023-05-16T00:18:37.598Z,11.60
2023-05-16T00:20:40.922Z,11.60
2023-05-16T00:22:43.711Z,11.60
2023-05-16T00:24:46.496Z,11.50
2023-05-16T00:26:49.258Z,11.50
2023-05-16T00:28:52.033Z,11.50
2023-05-16T00:30:56.132Z,11.50
2023-05-16T00:32:59.001Z,11.50
2023-05-16T00:35:01.868Z,11.50
2023-05-16T00:37:05.271Z,11.50
2023-05-16T00:39:08.080Z,11.50
2023-05-16T00:41:10.843Z,11.50
2023-05-16T00:43:13.626Z,11.50
2023-05-16T00:45:16.741Z,11.50
2023-05-16T00:47:20.896Z,11.50
2023-05-16T00:49:23.659Z,11.50
2023-05-16T00:51:26.429Z,11.50
2023-05-16T00:53:29.284Z,11.60
2023-05-16T00:55:32.397Z,11.60
2023-05-16T00:57:35.679Z,11.60
2023-05-16T00:59:38.432Z,11.60
2023-05-16T01:01:41.518Z,11.60
2023-05-16T01:03:47.166Z,11.50
2023-05-16T01:05:51.047Z,11.60
2023-05-16T01:07:53.818Z,11.60
2023-05-16T01:09:56.595Z,11.50
2023-05-16T01:12:03.204Z,11.50
2023-05-16T01:14:12.027Z,11.40
2023-05-16T01:16:17.643Z,11.40
2023-05-16T01:18:24.885Z,11.30
2023-05-16T01:20:34.837Z,11.40
2023-05-16T01:22:46.116Z,11.40
2023-05-16T01:24:58.190Z,11.40
2023-05-16T01:27:02.291Z,11.40
2023-05-16T01:29:05.481Z,11.40
2023-05-16T01:31:08.341Z,11.40
2023-05-16T01:33:11.306Z,11.40
2023-05-16T01:35:15.590Z,11.40
2023-05-16T01:37:20.820Z,11.40
2023-05-16T01:39:26.986Z,11.40
2023-05-16T01:41:32.250Z,11.40
2023-05-16T01:43:38.068Z,11.40
2023-05-16T01:45:42.957Z,11.40
2023-05-16T01:47:48.191Z,11.40
2023-05-16T01:49:52.340Z,11.40
2023-05-16T01:51:56.952Z,11.30
2023-05-16T01:54:01.960Z,11.30
2023-05-16T01:56:05.078Z,11.30
2023-05-16T01:58:07.962Z,11.30
2023-05-16T02:00:13.230Z,11.30
2023-05-16T02:02:18.789Z,11.30
2023-05-16T02:04:21.778Z,11.40
2023-05-16T02:06:25.843Z,11.30
2023-05-16T02:08:29.077Z,11.30
2023-05-16T02:10:32.897Z,11.30
2023-05-16T02:12:35.688Z,11.30
2023-05-16T02:14:38.469Z,11.30
2023-05-16T02:16:42.741Z,11.30
2023-05-16T02:18:45.886Z,11.20
2023-05-16T02:20:48.748Z,11.30
2023-05-16T02:22:51.582Z,11.30
2023-05-16T02:24:54.510Z,11.20
2023-05-16T02:26:57.288Z,11.30
2023-05-16T02:29:00.062Z,11.20
2023-05-16T02:31:02.888Z,11.20
2023-05-16T02:33:07.215Z,11.20
2023-05-16T02:35:10.190Z,11.20
2023-05-16T02:37:13.460Z,11.10
2023-05-16T02:39:16.688Z,11.10
2023-05-16T02:41:19.433Z,11.10
2023-05-16T02:43:22.342Z,11.10
2023-05-16T02:45:25.294Z,11.10
2023-05-16T02:47:28.152Z,11.00
2023-05-16T02:49:32.328Z,11.00
2023-05-16T02:51:35.103Z,11.00
2023-05-16T02:53:37.916Z,10.90
2023-05-16T02:55:40.850Z,10.90
2023-05-16T02:57:43.809Z,10.90
2023-05-16T02:59:46.664Z,10.90
2023-05-16T03:01:49.569Z,10.90
2023-05-16T03:03:52.520Z,10.90
2023-05-16T03:05:56.665Z,10.90
2023-05-16T03:07:59.454Z,10.90
2023-05-16T03:10:02.244Z,10.90
2023-05-16T03:12:06.986Z,10.90
2023-05-16T03:14:10.560Z,10.80
2023-05-16T03:16:13.340Z,10.80
2023-05-16T03:18:16.145Z,10.70
2023-05-16T03:20:19.170Z,10.80
2023-05-16T03:22:23.352Z,10.70
2023-05-16T03:24:26.246Z,10.70
2023-05-16T03:26:29.074Z,10.60
2023-05-16T03:28:32.072Z,10.60
2023-05-16T03:30:35.103Z,10.60
2023-05-16T03:32:39.532Z,10.60
2023-05-16T03:34:42.358Z,10.60
2023-05-16T03:36:45.229Z,10.60
2023-05-16T03:38:49.342Z,10.60
2023-05-16T03:40:52.165Z,10.60
2023-05-16T03:42:54.939Z,10.70
2023-05-16T03:44:57.733Z,10.60
2023-05-16T03:47:00.595Z,10.70
2023-05-16T03:49:03.717Z,10.70
2023-05-16T03:51:06.798Z,10.70
2023-05-16T03:53:10.544Z,10.70
2023-05-16T03:55:15.391Z,10.80
2023-05-16T03:57:18.204Z,10.80
2023-05-16T03:59:21.514Z,10.80
2023-05-16T04:01:24.303Z,10.70
2023-05-16T04:03:28.765Z,10.80
2023-05-16T04:05:31.951Z,10.70
2023-05-16T04:07:34.770Z,10.70
2023-05-16T04:09:37.569Z,10.60
2023-05-16T04:11:41.658Z,10.70
2023-05-16T04:13:44.469Z,10.60
2023-05-16T04:15:47.271Z,10.50
2023-05-16T04:17:50.093Z,10.60
2023-05-16T04:19:53.005Z,10.50
2023-05-16T04:21:55.909Z,10.50
2023-05-16T04:23:58.762Z,10.50
2023-05-16T04:26:01.972Z,10.50
2023-05-16T04:28:06.913Z,10.50
2023-05-16T04:30:11.321Z,10.50
2023-05-16T04:32:14.127Z,10.50
2023-05-16T04:34:16.908Z,10.50
2023-05-16T04:36:19.728Z,10.50
2023-05-16T04:38:22.575Z,10.60
2023-05-16T04:40:25.499Z,10.60
2023-05-16T04:42:28.355Z,10.60
2023-05-16T04:44:32.486Z,10.60
2023-05-16T04:46:35.319Z,10.60
2023-05-16T04:48:38.106Z,10.50
2023-05-16T04:50:40.957Z,10.50
2023-05-16T04:52:43.721Z,10.50
2023-05-16T04:54:46.519Z,10.50
2023-05-16T04:56:49.340Z,10.50
2023-05-16T04:58:52.142Z,10.60
2023-05-16T05:00:56.830Z,10.50
2023-05-16T05:02:59.675Z,10.60
2023-05-16T05:05:02.677Z,10.60
2023-05-16T05:07:05.958Z,10.70
2023-05-16T05:09:09.079Z,10.70
2023-05-16T05:11:11.877Z,10.70
2023-05-16T05:13:14.664Z,10.70
2023-05-16T05:15:17.523Z,10.80
2023-05-16T05:17:22.155Z,10.70
2023-05-16T05:19:25.007Z,10.70
2023-05-16T05:21:27.956Z,10.70
2023-05-16T05:23:31.567Z,10.70
2023-05-16T05:25:36.311Z,10.70
2023-05-16T05:27:40.339Z,10.70
2023-05-16T05:29:43.131Z,10.70
2023-05-16T05:31:45.931Z,10.60
2023-05-16T05:33:50.085Z,10.60
2023-05-16T05:35:54.016Z,10.70
2023-05-16T05:37:56.801Z,10.70
2023-05-16T05:39:59.598Z,10.70
2023-05-16T05:42:03.978Z,10.60
2023-05-16T05:44:06.980Z,10.60
2023-05-16T05:46:10.016Z,10.70
2023-05-16T05:48:12.920Z,10.70
2023-05-16T05:50:17.062Z,10.80
2023-05-16T05:52:19.846Z,10.80
2023-05-16T05:54:22.611Z,10.80
2023-05-16T05:56:25.706Z,10.80
2023-05-16T05:58:28.499Z,10.90
2023-05-16T06:00:31.290Z,10.90
2023-05-16T06:02:34.176Z,11.10
2023-05-16T06:04:37.028Z,11.40
2023-05-16T06:06:41.161Z,11.80
2023-05-16T06:08:43.937Z,12.00
2023-05-16T06:10:47.027Z,12.20
2023-05-16T06:12:50.074Z,12.30
2023-05-16T06:14:52.865Z,12.50
2023-05-16T06:16:55.689Z,12.60
2023-05-16T06:18:58.574Z,12.60
2023-05-16T06:21:01.387Z,13.10
2023-05-16T06:23:05.698Z,13.10
2023-05-16T06:25:09.054Z,13.30
2023-05-16T06:27:11.845Z,13.20
2023-05-16T06:29:14.649Z,13.50
2023-05-16T06:31:17.492Z,13.60
2023-05-16T06:33:20.422Z,13.50
2023-05-16T06:35:23.483Z,13.50
2023-05-16T06:37:26.800Z,13.60
2023-05-16T06:39:30.913Z,13.80
2023-05-16T06:41:34.033Z,13.70
2023-05-16T06:43:36.874Z,13.40
2023-05-16T06:45:39.734Z,13.50
2023-05-16T06:47:42.613Z,13.30
2023-05-16T06:49:45.476Z,13.40
2023-05-16T06:51:48.291Z,13.60
2023-05-16T06:53:51.117Z,13.60
2023-05-16T06:55:55.385Z,13.50
2023-05-16T06:57:58.211Z,13.90
2023-05-16T07:00:01.022Z,14.30
2023-05-16T07:02:03.872Z,14.50
2023-05-16T07:04:07.340Z,14.30
2023-05-16T07:06:10.251Z,14.40
2023-05-16T07:08:13.164Z,14.80
2023-05-16T07:10:15.962Z,14.90
2023-05-16T07:12:20.917Z,14.60
2023-05-16T07:14:23.712Z,14.80
2023-05-16T07:16:28.438Z,14.90
2023-05-16T07:18:31.347Z,15.10
2023-05-16T07:20:34.316Z,14.90
2023-05-16T07:22:37.160Z,14.60
2023-05-16T07:24:39.989Z,14.00
2023-05-16T07:26:42.807Z,14.20
2023-05-16T07:28:46.956Z,14.10
2023-05-16T07:30:49.782Z,14.30
2023-05-16T07:32:52.710Z,14.00
2023-05-16T07:34:55.599Z,13.80
2023-05-16T07:36:58.410Z,13.50
2023-05-16T07:39:01.322Z,13.40
2023-05-16T07:41:04.155Z,13.70
2023-05-16T07:43:06.988Z,14.40
2023-05-16T07:45:11.438Z,14.70
2023-05-16T07:47:14.276Z,15.20
2023-05-16T07:49:17.126Z,15.50
2023-05-16T07:51:19.927Z,15.40
2023-05-16T07:53:22.763Z,15.10
2023-05-16T07:55:25.912Z,15.50
2023-05-16T07:57:29.016Z,15.50
2023-05-16T07:59:31.878Z,15.70
2023-05-16T08:01:36.113Z,16.00
2023-05-16T08:03:39.083Z,16.10
2023-05-16T08:05:42.630Z,15.90
2023-05-16T08:07:45.480Z,15.80
2023-05-16T08:09:48.297Z,15.60
2023-05-16T08:11:51.109Z,15.20
2023-05-16T08:13:53.904Z,15.00
2023-05-16T08:15:56.755Z,15.40
2023-05-16T08:18:01.324Z,15.70
2023-05-16T08:20:04.625Z,15.80
2023-05-16T08:22:08.216Z,15.90
2023-05-16T08:24:11.973Z,15.70
2023-05-16T08:26:14.807Z,15.60
2023-05-16T08:28:17.674Z,16.30
2023-05-16T08:30:20.637Z,16.10
2023-05-16T08:32:23.735Z,16.30
2023-05-16T08:34:27.912Z,15.90
2023-05-16T08:36:31.708Z,15.40
2023-05-16T08:38:34.569Z,15.00
2023-05-16T08:40:37.602Z,14.80
2023-05-16T08:42:40.672Z,15.60
2023-05-16T08:44:44.304Z,15.90
2023-05-16T08:46:47.294Z,16.30
2023-05-16T08:48:52.316Z,16.90
2023-05-16T08:50:56.463Z,17.10
2023-05-16T08:52:59.344Z,16.70
2023-05-16T08:55:10.715Z,16.80
2023-05-16T08:57:14.784Z,16.80
2023-05-16T08:59:17.712Z,16.60
2023-05-16T09:01:20.720Z,16.20
2023-05-16T09:03:25.222Z,16.30
2023-05-16T09:05:28.305Z,16.40
2023-05-16T09:07:32.790Z,17.10
2023-05-16T09:09:35.673Z,16.60
2023-05-16T09:11:38.500Z,16.70
2023-05-16T09:13:41.333Z,16.80
2023-05-16T09:15:45.562Z,17.20
2023-05-16T09:17:49.244Z,17.50
2023-05-16T09:19:56.550Z,17.90
2023-05-16T09:21:59.375Z,18.20
2023-05-16T09:24:05.914Z,18.30
2023-05-16T09:26:08.963Z,18.70
2023-05-16T09:28:12.606Z,18.10
2023-05-16T09:30:15.809Z,17.20
2023-05-16T09:32:18.638Z,17.70
2023-05-16T09:34:22.171Z,18.30
2023-05-16T09:36:25.086Z,18.80
2023-05-16T09:38:28.631Z,18.50
2023-05-16T09:40:32.839Z,18.40
2023-05-16T09:42:35.652Z,17.90
2023-05-16T09:44:38.503Z,18.50
2023-05-16T09:46:41.333Z,18.80
2023-05-16T09:48:46.284Z,17.70
2023-05-16T09:50:52.312Z,17.30
2023-05-16T09:52:55.197Z,17.00
2023-05-16T09:54:58.017Z,17.60
2023-05-16T09:57:03.182Z,18.20
2023-05-16T09:59:11.226Z,18.80
2023-05-16T10:01:14.176Z,19.30
2023-05-16T10:03:17.070Z,19.10
2023-05-16T10:05:19.988Z,18.70
2023-05-16T10:07:22.816Z,18.00
2023-05-16T10:09:25.666Z,17.10
2023-05-16T10:11:28.486Z,17.10
2023-05-16T10:13:33.911Z,16.70
2023-05-16T10:15:37.863Z,16.10
2023-05-16T10:17:41.633Z,17.20
2023-05-16T10:19:44.474Z,17.80
2023-05-16T10:21:49.883Z,18.80
2023-05-16T10:23:52.685Z,18.80
2023-05-16T10:25:55.512Z,19.10
2023-05-16T10:27:59.128Z,19.40
2023-05-16T10:30:03.293Z,19.40
2023-05-16T10:32:07.456Z,18.90
2023-05-16T10:34:10.360Z,18.80
2023-05-16T10:36:13.440Z,19.30
2023-05-16T10:38:17.579Z,19.60
2023-05-16T10:40:22.823Z,19.90
2023-05-16T10:42:26.504Z,20.10
2023-05-16T10:44:29.353Z,20.30
2023-05-16T10:46:33.667Z,20.40
2023-05-16T10:48:37.750Z,20.50
2023-05-16T10:50:41.433Z,20.50
2023-05-16T10:52:44.243Z,20.50
2023-05-16T10:54:51.745Z,20.10
2023-05-16T10:56:57.122Z,20.60
2023-05-16T10:59:00.144Z,21.30
2023-05-16T11:01:23.020Z,21.40
2023-05-16T11:03:28.543Z,20.40
2023-05-16T11:05:31.532Z,20.00
2023-05-16T11:07:35.102Z,20.30
2023-05-16T11:09:37.913Z,19.80
2023-05-16T11:11:42.826Z,19.00
2023-05-16T11:13:55.509Z,18.60
2023-05-16T11:16:28.590Z,18.20
2023-05-16T11:18:34.642Z,18.00
2023-05-16T11:20:38.248Z,18.80
2023-05-16T11:22:41.673Z,19.40
2023-05-16T11:24:51.933Z,19.80
2023-05-16T11:26:54.984Z,20.20
2023-05-16T11:28:58.377Z,20.40
2023-05-16T11:31:02.414Z,20.30
2023-05-16T11:33:05.457Z,20.30
2023-05-16T11:35:12.821Z,20.70
2023-05-16T11:37:17.826Z,20.70
2023-05-16T11:39:21.053Z,20.80
2023-05-16T11:41:24.001Z,21.00
2023-05-16T11:43:26.798Z,21.10
2023-05-16T11:45:30.094Z,21.20
2023-05-16T11:47:33.079Z,20.80
2023-05-16T11:49:36.545Z,20.90
2023-05-16T11:51:41.080Z,20.10
2023-05-16T11:53:44.786Z,19.60
2023-05-16T11:55:54.122Z,19.70
2023-05-16T11:57:58.878Z,19.90
2023-05-16T12:00:06.448Z,20.00
2023-05-16T12:02:09.827Z,19.00
2023-05-16T12:04:13.052Z,18.10
2023-05-16T12:06:15.973Z,19.20
2023-05-16T12:08:21.254Z,19.60
2023-05-16T12:10:24.165Z,20.30
2023-05-16T12:12:26.968Z,20.40
2023-05-16T12:14:30.040Z,20.70
2023-05-16T12:16:32.901Z,20.70
2023-05-16T12:18:39.552Z,20.90
2023-05-16T12:20:44.706Z,21.10
2023-05-16T12:22:47.690Z,21.10
2023-05-16T12:24:51.817Z,21.40
2023-05-16T12:26:54.670Z,20.50
2023-05-16T12:29:00.782Z,19.70
2023-05-16T12:31:03.724Z,20.20
2023-05-16T12:33:09.876Z,20.10
2023-05-16T12:35:13.118Z,19.50
2023-05-16T12:37:16.164Z,19.00
2023-05-16T12:39:19.933Z,18.40
2023-05-16T12:41:24.249Z,18.10
2023-05-16T12:43:27.842Z,17.90
2023-05-16T12:45:31.225Z,17.50
2023-05-16T12:47:38.975Z,17.30
2023-05-16T12:49:46.026Z,16.90
2023-05-16T12:51:52.350Z,16.90
2023-05-16T12:54:08.709Z,16.70
2023-05-16T12:56:12.973Z,17.20
2023-05-16T12:58:17.117Z,18.10
2023-05-16T13:00:20.867Z,18.60
2023-05-16T13:02:23.777Z,18.80
2023-05-16T13:04:26.704Z,18.30
2023-05-16T13:06:36.763Z,17.90
2023-05-16T13:08:48.189Z,17.40
2023-05-16T13:10:51.009Z,17.00
2023-05-16T13:12:53.886Z,16.90
2023-05-16T13:15:00.930Z,16.80
2023-05-16T13:17:04.857Z,16.50
2023-05-16T13:19:07.985Z,16.20
2023-05-16T13:21:10.855Z,16.50
2023-05-16T13:23:13.684Z,16.70
2023-05-16T13:25:16.512Z,18.00
2023-05-16T13:27:19.336Z,18.80
2023-05-16T13:29:22.193Z,18.60
2023-05-16T13:31:26.554Z,18.00
2023-05-16T13:33:29.384Z,18.30
2023-05-16T13:35:32.299Z,18.00
2023-05-16T13:37:35.253Z,17.80
2023-05-16T13:39:38.068Z,18.70
2023-05-16T13:41:42.203Z,19.20
2023-05-16T13:43:45.036Z,19.30
2023-05-16T13:45:47.864Z,19.70
2023-05-16T13:47:52.133Z,19.40
2023-05-16T13:49:54.962Z,18.90
2023-05-16T13:51:58.545Z,18.50
2023-05-16T13:54:01.360Z,18.30
2023-05-16T13:56:04.351Z,17.80
2023-05-16T13:58:07.149Z,17.30
2023-05-16T14:02:19.124Z,16.60
2023-05-16T14:04:23.465Z,16.00
2023-05-16T14:06:26.389Z,15.60
2023-05-16T14:08:29.222Z,15.40
2023-05-16T14:10:32.594Z,15.20
2023-05-16T14:12:35.427Z,15.20
2023-05-16T14:14:38.349Z,15.10
2023-05-16T14:16:45.083Z,15.10
2023-05-16T14:18:48.132Z,15.20
2023-05-16T14:20:54.008Z,15.10
2023-05-16T14:22:56.815Z,15.00
2023-05-16T14:25:00.356Z,14.90
2023-05-16T14:27:03.215Z,15.00
2023-05-16T14:29:06.085Z,15.30
2023-05-16T14:31:09.014Z,15.50
2023-05-16T14:33:11.924Z,15.90
2023-05-16T14:35:14.778Z,16.20
2023-05-16T14:37:20.200Z,16.40
2023-05-16T14:39:23.053Z,16.60
2023-05-16T14:41:26.662Z,16.70
2023-05-16T14:43:29.507Z,16.70
2023-05-16T14:45:32.487Z,16.50
2023-05-16T14:47:35.453Z,16.80
2023-05-16T14:49:38.291Z,17.30
2023-05-16T14:51:41.140Z,17.10
2023-05-16T14:53:47.147Z,17.60
2023-05-16T14:55:50.169Z,18.00
2023-05-16T14:57:59.296Z,18.10
2023-05-16T15:00:02.844Z,18.10
2023-05-16T15:02:06.582Z,18.00
2023-05-16T15:04:09.533Z,17.60
2023-05-16T15:06:12.362Z,17.40
2023-05-16T15:08:15.181Z,17.50
2023-05-16T15:10:19.590Z,17.40
2023-05-16T15:12:22.770Z,17.80
2023-05-16T15:14:27.063Z,17.20
2023-05-16T15:16:31.079Z,17.40
2023-05-16T15:18:34.268Z,17.60
2023-05-16T15:20:37.125Z,17.50
2023-05-16T15:22:40.386Z,17.30
2023-05-16T15:24:43.463Z,17.40
2023-05-16T15:26:47.637Z,17.20
2023-05-16T15:28:50.449Z,17.00
2023-05-16T15:30:53.338Z,16.70
2023-05-16T15:32:56.299Z,16.40
2023-05-16T15:34:59.185Z,16.20
2023-05-16T15:37:01.986Z,16.00
2023-05-16T15:39:05.593Z,15.70
2023-05-16T15:41:22.477Z,15.40
2023-05-16T15:43:33.246Z,15.30
2023-05-16T15:45:39.901Z,15.00
2023-05-16T15:47:43.226Z,14.90
2023-05-16T15:49:46.042Z,14.70
2023-05-16T15:51:48.851Z,14.60
2023-05-16T15:53:51.683Z,14.50
2023-05-16T15:55:55.635Z,14.50
2023-05-16T15:57:59.662Z,14.60
2023-05-16T16:00:03.960Z,14.70
2023-05-16T16:02:07.957Z,14.90
2023-05-16T16:04:10.786Z,15.20
2023-05-16T16:06:13.700Z,15.70
2023-05-16T16:08:16.554Z,16.00
2023-05-16T16:10:19.970Z,16.20
2023-05-16T16:12:24.805Z,16.20
2023-05-16T16:14:27.604Z,16.30
2023-05-16T16:16:31.963Z,16.30
2023-05-16T16:18:34.833Z,16.40
2023-05-16T16:20:37.707Z,16.40
2023-05-16T16:22:40.503Z,16.30
2023-05-16T16:24:43.329Z,16.10
2023-05-16T16:26:46.422Z,16.00
2023-05-16T16:28:50.291Z,16.00
2023-05-16T16:30:53.376Z,16.00
2023-05-16T16:32:57.612Z,16.00
2023-05-16T16:35:01.639Z,15.90
2023-05-16T16:37:04.489Z,16.10
2023-05-16T16:39:07.376Z,16.10
2023-05-16T16:41:10.552Z,15.90
2023-05-16T16:43:13.374Z,15.80
2023-05-16T16:45:16.210Z,15.90
2023-05-16T16:47:19.176Z,15.90
2023-05-16T16:49:23.394Z,15.80
2023-05-16T16:51:26.257Z,15.60
2023-05-16T16:53:29.111Z,15.60
2023-05-16T16:55:32.043Z,15.50
2023-05-16T16:57:34.882Z,15.40
2023-05-16T16:59:37.713Z,15.30
2023-05-16T17:01:40.722Z,15.20
2023-05-16T17:03:43.709Z,15.30
2023-05-16T17:05:47.908Z,15.20
2023-05-16T17:07:51.659Z,15.10
2023-05-16T17:09:56.205Z,14.90
2023-05-16T17:12:04.757Z,14.70
2023-05-16T17:14:10.485Z,14.60
2023-05-16T17:16:13.490Z,14.60
2023-05-16T17:18:16.366Z,14.70
2023-05-16T17:20:19.210Z,14.50
2023-05-16T17:22:23.420Z,14.40
2023-05-16T17:24:26.255Z,14.30
2023-05-16T17:26:29.121Z,14.30
2023-05-16T17:28:32.502Z,14.20
2023-05-16T17:30:35.339Z,14.20
2023-05-16T17:32:39.930Z,14.10
2023-05-16T17:34:42.810Z,14.00
2023-05-16T17:36:45.854Z,13.90
2023-05-16T17:38:49.989Z,13.90
2023-05-16T17:40:52.913Z,13.80
2023-05-16T17:42:55.922Z,13.70
2023-05-16T17:45:01.461Z,13.70
2023-05-16T17:47:04.275Z,13.70
2023-05-16T17:49:07.989Z,13.60
2023-05-16T17:51:11.020Z,13.60
2023-05-16T17:53:14.122Z,13.50
2023-05-16T17:55:18.449Z,13.50
2023-05-16T17:57:21.279Z,13.50
2023-05-16T17:59:24.106Z,13.40
2023-05-16T18:01:27.031Z,13.40
2023-05-16T18:03:30.131Z,13.30
2023-05-16T18:05:33.208Z,13.30
2023-05-16T18:07:36.110Z,13.30
2023-05-16T18:09:38.931Z,13.30
2023-05-16T18:11:43.194Z,13.40
2023-05-16T18:13:46.440Z,13.40
2023-05-16T18:15:49.314Z,13.40
2023-05-16T18:17:52.214Z,13.30
2023-05-16T18:19:55.144Z,13.20
2023-05-16T18:21:58.493Z,13.10
2023-05-16T18:24:01.411Z,13.10
2023-05-16T18:26:04.351Z,13.00
2023-05-16T18:28:08.856Z,12.90
2023-05-16T18:30:13.084Z,12.80
2023-05-16T18:32:16.133Z,12.80
2023-05-16T18:34:18.924Z,12.80
2023-05-16T18:36:21.752Z,12.60
2023-05-16T18:38:32.650Z,12.60
2023-05-16T18:40:36.462Z,12.70
2023-05-16T18:42:39.286Z,12.60
2023-05-16T18:44:43.423Z,12.60
2023-05-16T18:46:46.902Z,12.70
2023-05-16T18:48:49.734Z,12.60
2023-05-16T18:50:52.587Z,12.70
2023-05-16T18:52:57.408Z,12.70
2023-05-16T18:55:00.308Z,12.60
2023-05-16T18:57:03.401Z,12.60
2023-05-16T18:59:06.882Z,12.50
2023-05-16T19:01:11.287Z,12.50
2023-05-16T19:03:14.186Z,12.40
2023-05-16T19:05:17.105Z,12.30
2023-05-16T19:07:19.979Z,12.30
2023-05-16T19:09:22.804Z,12.20
2023-05-16T19:11:26.543Z,12.10
2023-05-16T19:13:32.117Z,12.00
2023-05-16T19:15:35.487Z,11.90
2023-05-16T19:17:41.611Z,11.80
2023-05-16T19:19:44.520Z,11.80
2023-05-16T19:21:48.174Z,11.80
2023-05-16T19:23:50.985Z,11.70
2023-05-16T19:25:54.540Z,11.60
2023-05-16T19:28:00.062Z,11.60
2023-05-16T19:30:03.374Z,11.60
2023-05-16T19:32:06.973Z,11.60
2023-05-16T19:34:11.184Z,11.40
2023-05-16T19:36:14.016Z,11.50
2023-05-16T19:38:19.625Z,11.40
2023-05-16T19:40:22.508Z,11.40
2023-05-16T19:42:25.333Z,11.30
2023-05-16T19:44:28.152Z,11.20
2023-05-16T19:46:31.062Z,11.20
2023-05-16T19:48:33.957Z,11.20
2023-05-16T19:50:38.213Z,11.10
2023-05-16T19:52:41.083Z,11.10
2023-05-16T19:54:43.894Z,11.10
2023-05-16T19:56:46.701Z,11.10
2023-05-16T19:58:49.524Z,11.10
2023-05-16T20:00:52.348Z,11.10
2023-05-16T20:02:55.273Z,11.10
2023-05-16T20:04:58.226Z,11.10
2023-05-16T20:07:02.542Z,11.10
2023-05-16T20:09:06.097Z,11.20
2023-05-16T20:11:09.018Z,11.10
2023-05-16T20:13:11.824Z,11.10
2023-05-16T20:15:14.664Z,11.10
2023-05-16T20:17:17.449Z,11.00
2023-05-16T20:19:20.563Z,11.00
2023-05-16T20:21:23.561Z,11.00
2023-05-16T20:23:27.743Z,11.00
2023-05-16T20:25:32.052Z,11.00
2023-05-16T20:27:35.189Z,11.00
2023-05-16T20:29:38.037Z,11.10
2023-05-16T20:31:42.615Z,11.00
2023-05-16T20:33:46.788Z,11.00
2023-05-16T20:35:49.615Z,11.00
2023-05-16T20:37:52.473Z,10.90
2023-05-16T20:39:56.622Z,10.90
2023-05-16T20:41:59.592Z,10.80
2023-05-16T20:44:02.437Z,10.80
2023-05-16T20:46:05.237Z,10.70
2023-05-16T20:48:08.357Z,10.60
2023-05-16T20:50:11.719Z,10.50
2023-05-16T20:52:14.549Z,10.50
2023-05-16T20:54:17.460Z,10.50
2023-05-16T20:56:21.601Z,10.50
2023-05-16T20:58:24.494Z,10.40
2023-05-16T21:00:27.317Z,10.40
2023-05-16T21:02:30.202Z,10.40
2023-05-16T21:04:33.145Z,10.40
2023-05-16T21:06:36.217Z,10.40
2023-05-16T21:08:39.270Z,10.30
2023-05-16T21:10:42.117Z,10.30
2023-05-16T21:12:46.288Z,10.30
2023-05-16T21:14:49.342Z,10.30
2023-05-16T21:16:53.139Z,10.40
2023-05-16T21:18:56.148Z,10.40
2023-05-16T21:20:59.221Z,10.40
2023-05-16T21:23:02.094Z,10.40
2023-05-16T21:25:05.377Z,10.40
2023-05-16T21:27:08.349Z,10.40
2023-05-16T21:29:12.599Z,10.30
2023-05-16T21:31:15.509Z,10.30
2023-05-16T21:33:18.375Z,10.20
2023-05-16T21:35:21.785Z,10.20
2023-05-16T21:37:24.673Z,10.20
2023-05-16T21:39:27.489Z,10.20
2023-05-16T21:41:30.283Z,10.20
2023-05-16T21:43:33.103Z,10.20
2023-05-16T21:45:37.391Z,10.10
2023-05-16T21:47:40.244Z,10.10
2023-05-16T21:49:43.109Z,10.10
2023-05-16T21:51:45.950Z,10.00
2023-05-16T21:53:48.991Z,10.00
2023-05-16T21:55:51.809Z,9.90
2023-05-16T21:57:54.637Z,9.80
2023-05-16T21:59:57.539Z,9.80
2023-05-16T22:02:01.986Z,9.80
2023-05-16T22:04:05.111Z,9.70
2023-05-16T22:06:08.087Z,9.70
2023-05-16T22:08:11.362Z,9.60
2023-05-16T22:10:14.970Z,9.50
2023-05-16T22:12:17.889Z,9.50
2023-05-16T22:14:20.744Z,9.40
2023-05-16T22:16:23.598Z,9.40
2023-05-16T22:18:28.118Z,9.30
2023-05-16T22:20:31.017Z,9.30
2023-05-16T22:22:33.865Z,9.30
2023-05-16T22:24:36.699Z,9.20
2023-05-16T22:26:40.465Z,9.30
2023-05-16T22:28:43.322Z,9.20
2023-05-16T22:30:46.143Z,9.20
2023-05-16T22:32:49.322Z,9.20
2023-05-16T22:34:53.992Z,9.10
2023-05-16T22:36:56.797Z,9.10
2023-05-16T22:38:59.610Z,9.00
2023-05-16T22:41:02.401Z,9.00
2023-05-16T22:43:05.278Z,9.00
2023-05-16T22:45:08.909Z,9.00
2023-05-16T22:47:11.754Z,9.00
2023-05-16T22:49:14.906Z,8.90
2023-05-16T22:51:19.061Z,8.90
2023-05-16T22:53:21.889Z,8.80
2023-05-16T22:55:24.816Z,8.80
2023-05-16T22:57:27.683Z,8.80
2023-05-16T22:59:30.505Z,8.80
2023-05-16T23:01:33.339Z,8.70
2023-05-16T23:03:36.337Z,8.70
2023-05-16T23:05:39.213Z,8.70
2023-05-16T23:07:43.352Z,8.70
2023-05-16T23:09:46.148Z,8.60
2023-05-16T23:11:48.968Z,8.60
2023-05-16T23:13:51.775Z,8.60
2023-05-16T23:15:54.602Z,8.70
2023-05-16T23:17:57.460Z,8.60
2023-05-16T23:20:00.468Z,8.60
2023-05-16T23:22:03.510Z,8.70
2023-05-16T23:24:08.264Z,8.60
2023-05-16T23:26:11.113Z,8.60
2023-05-16T23:28:14.919Z,8.60
2023-05-16T23:30:17.858Z,8.60
2023-05-16T23:32:20.868Z,8.60
2023-05-16T23:34:23.707Z,8.60
2023-05-16T23:36:26.537Z,8.60
2023-05-16T23:38:29.349Z,8.50
2023-05-16T23:40:33.511Z,8.50
2023-05-16T23:42:36.747Z,8.50
2023-05-16T23:44:41.815Z,8.50
2023-05-16T23:46:44.644Z,8.50
2023-05-16T23:48:47.619Z,8.50
2023-05-16T23:50:50.465Z,8.40
2023-05-16T23:52:53.295Z,8.50
2023-05-16T23:54:56.209Z,8.50
2023-05-16T23:57:00.431Z,8.50
2023-05-16T23:59:03.254Z,8.60
